createdAt,value
2022-11-13T00:02:38.164Z,7.08
2022-11-13T00:07:39.642Z,7.02
2022-11-13T00:12:41.104Z,6.99
2022-11-13T00:17:42.620Z,6.87
2022-11-13T00:22:44.149Z,6.80
2022-11-13T00:27:45.615Z,6.67
2022-11-13T00:32:47.118Z,6.60
2022-11-13T00:37:48.586Z,6.57
2022-11-13T00:42:52.104Z,6.63
2022-11-13T00:47:53.675Z,6.51
2022-11-13T00:52:55.128Z,6.36
2022-11-13T00:57:56.614Z,6.24
2022-11-13T01:02:59.350Z,6.12
2022-11-13T01:08:00.972Z,6.05
2022-11-13T01:13:02.502Z,5.97
2022-11-13T01:18:04.017Z,6.06
2022-11-13T01:23:05.538Z,6.03
2022-11-13T01:28:07.032Z,6.06
2022-11-13T01:33:08.471Z,6.09
2022-11-13T01:38:09.924Z,6.10
2022-11-13T01:43:40.509Z,6.14
2022-11-13T01:48:47.028Z,6.21
2022-11-13T01:53:49.182Z,6.19
2022-11-13T01:58:58.875Z,6.11
2022-11-13T02:04:00.662Z,6.13
2022-11-13T02:09:02.521Z,6.10
2022-11-13T02:14:06.103Z,6.21
2022-11-13T02:19:14.291Z,6.02
2022-11-13T02:24:45.595Z,5.88
2022-11-13T02:29:48.069Z,5.88
2022-11-13T02:34:49.551Z,5.67
2022-11-13T02:39:51.064Z,5.51
2022-11-13T02:44:52.568Z,5.50
2022-11-13T02:49:54.117Z,5.44
2022-11-13T02:54:55.593Z,5.31
2022-11-13T02:59:57.069Z,5.32
2022-11-13T03:05:12.031Z,5.39
2022-11-13T03:10:15.072Z,5.52
2022-11-13T03:15:16.698Z,5.59
2022-11-13T03:20:18.163Z,5.79
2022-11-13T03:25:19.710Z,5.99
2022-11-13T03:30:21.263Z,6.06
2022-11-13T03:35:25.853Z,6.04
2022-11-13T03:40:29.046Z,5.97
2022-11-13T03:45:30.519Z,5.87
2022-11-13T03:50:32.005Z,5.81
2022-11-13T03:55:33.475Z,5.77
2022-11-13T04:00:36.393Z,5.72
2022-11-13T04:05:38.611Z,5.68
2022-11-13T04:10:40.170Z,5.60
2022-11-13T04:15:41.653Z,5.53
2022-11-13T04:20:43.122Z,5.51
2022-11-13T04:25:44.824Z,5.56
2022-11-13T04:30:46.285Z,5.48
2022-11-13T04:35:48.580Z,5.38
2022-11-13T04:41:11.130Z,5.32
2022-11-13T04:46:12.622Z,5.35
2022-11-13T04:51:14.336Z,5.36
2022-11-13T04:56:16.847Z,5.33
2022-11-13T05:01:18.471Z,5.29
2022-11-13T05:06:20.004Z,5.22
2022-11-13T05:11:22.647Z,5.17
2022-11-13T05:16:24.231Z,5.09
2022-11-13T05:21:25.857Z,5.01
2022-11-13T05:26:28.703Z,4.93
2022-11-13T05:31:30.266Z,4.91
2022-11-13T05:36:32.100Z,4.80
2022-11-13T05:41:33.811Z,4.71
2022-11-13T05:46:35.336Z,4.64
2022-11-13T05:51:36.799Z,4.70
2022-11-13T05:56:38.361Z,4.73
2022-11-13T06:01:40.754Z,4.68
2022-11-13T06:06:43.203Z,4.62
2022-11-13T06:11:44.859Z,4.50
2022-11-13T06:16:46.340Z,4.50
2022-11-13T06:21:47.910Z,4.51
2022-11-13T06:26:49.374Z,4.43
2022-11-13T06:31:50.909Z,4.27
2022-11-13T06:36:52.475Z,4.34
2022-11-13T06:41:53.950Z,4.46
2022-11-13T06:46:55.400Z,4.52
2022-11-13T06:51:56.837Z,4.51
2022-11-13T06:56:58.569Z,4.41
2022-11-13T07:02:00.102Z,4.42
2022-11-13T07:07:01.689Z,4.28
2022-11-13T07:12:03.304Z,4.27
2022-11-13T07:17:09.535Z,4.23
2022-11-13T07:22:11.752Z,4.28
2022-11-13T07:27:13.214Z,4.31
2022-11-13T07:32:14.989Z,4.44
2022-11-13T07:37:16.508Z,4.71
2022-11-13T07:42:17.991Z,4.96
2022-11-13T07:47:19.500Z,5.11
2022-11-13T07:52:21.011Z,5.05
2022-11-13T07:57:23.065Z,5.06
2022-11-13T08:02:26.692Z,5.99
2022-11-13T08:07:28.476Z,6.95
2022-11-13T08:12:29.914Z,7.60
2022-11-13T08:17:31.411Z,8.19
2022-11-13T08:22:33.380Z,8.22
2022-11-13T08:27:34.858Z,8.54
2022-11-13T08:32:36.328Z,9.12
2022-11-13T08:37:37.850Z,9.24
2022-11-13T08:42:39.416Z,9.41
2022-11-13T08:47:40.938Z,10.00
2022-11-13T08:52:42.441Z,10.32
2022-11-13T08:57:43.866Z,10.59
2022-11-13T09:02:45.352Z,10.85
2022-11-13T09:07:46.987Z,10.50
2022-11-13T09:12:48.489Z,10.38
2022-11-13T09:17:49.950Z,10.48
2022-11-13T09:23:03.615Z,10.67
2022-11-13T09:28:06.525Z,10.06
2022-11-13T09:33:08.528Z,9.34
2022-11-13T09:38:13.063Z,9.38
2022-11-13T09:43:27.278Z,9.80
2022-11-13T09:48:38.346Z,10.06
2022-11-13T09:53:43.555Z,10.60
2022-11-13T09:59:00.439Z,10.64
2022-11-13T10:04:14.308Z,10.73
2022-11-13T10:09:34.256Z,10.61
2022-11-13T10:14:46.329Z,11.25
2022-11-13T10:19:58.653Z,11.46
2022-11-13T10:25:10.363Z,11.22
2022-11-13T10:30:17.319Z,11.72
2022-11-13T10:35:34.961Z,11.71
2022-11-13T10:40:39.654Z,11.88
2022-11-13T10:45:43.641Z,11.95
2022-11-13T10:50:54.100Z,12.15
2022-11-13T10:55:59.312Z,12.73
2022-11-13T11:01:00.949Z,12.87
2022-11-13T11:06:05.301Z,13.15
2022-11-13T11:11:54.068Z,13.23
2022-11-13T11:16:56.240Z,12.94
2022-11-13T11:22:09.618Z,12.68
2022-11-13T11:27:22.974Z,13.24
2022-11-13T11:32:47.857Z,13.75
2022-11-13T11:37:58.596Z,14.00
2022-11-13T11:43:24.846Z,13.42
2022-11-13T11:48:30.030Z,12.58
2022-11-13T11:53:55.757Z,12.25
2022-11-13T11:59:06.240Z,12.03
2022-11-13T12:04:13.981Z,11.88
2022-11-13T12:09:28.539Z,11.72
2022-11-13T12:14:56.254Z,11.65
2022-11-13T12:20:26.282Z,11.56
2022-11-13T12:25:36.669Z,11.58
2022-11-13T12:30:53.658Z,11.62
2022-11-13T12:35:55.804Z,11.78
2022-11-13T12:41:07.102Z,11.87
2022-11-13T12:46:11.677Z,11.89
2022-11-13T12:51:16.757Z,11.99
2022-11-13T12:56:34.599Z,12.21
2022-11-13T13:01:44.806Z,12.29
2022-11-13T13:07:16.721Z,12.24
2022-11-13T13:12:37.036Z,12.25
2022-11-13T13:17:41.228Z,12.06
2022-11-13T13:22:43.022Z,12.07
2022-11-13T13:27:45.598Z,12.09
2022-11-13T13:33:00.356Z,12.08
2022-11-13T13:38:14.381Z,12.01
2022-11-13T13:43:34.336Z,11.87
2022-11-13T13:48:39.585Z,11.82
2022-11-13T13:53:41.211Z,11.73
2022-11-13T13:58:43.436Z,11.70
2022-11-13T14:03:45.110Z,11.67
2022-11-13T14:08:48.415Z,11.64
2022-11-13T14:13:49.906Z,11.63
2022-11-13T14:18:51.474Z,11.62
2022-11-13T14:23:55.413Z,11.62
2022-11-13T14:29:02.333Z,11.60
2022-11-13T14:34:14.847Z,11.59
2022-11-13T14:39:24.690Z,11.59
2022-11-13T14:44:32.523Z,11.56
2022-11-13T14:49:37.341Z,11.52
2022-11-13T14:55:13.180Z,11.50
2022-11-13T15:00:17.504Z,11.44
2022-11-13T15:05:19.046Z,11.35
2022-11-13T15:10:23.328Z,11.27
2022-11-13T15:15:28.537Z,11.17
2022-11-13T15:20:31.260Z,11.04
2022-11-13T15:25:32.872Z,10.95
2022-11-13T15:30:34.886Z,10.85
2022-11-13T15:35:36.486Z,10.75
2022-11-13T15:40:39.443Z,10.61
2022-11-13T15:45:44.208Z,10.47
2022-11-13T15:50:48.242Z,10.31
2022-11-13T15:55:49.944Z,10.11
2022-11-13T16:00:51.426Z,9.88
2022-11-13T16:05:52.879Z,9.75
2022-11-13T16:10:54.962Z,9.65
2022-11-13T16:15:56.706Z,9.18
2022-11-13T16:20:58.216Z,8.70
2022-11-13T16:25:59.780Z,8.29
2022-11-13T16:31:01.324Z,8.03
2022-11-13T16:36:03.416Z,7.81
2022-11-13T16:41:04.958Z,7.59
2022-11-13T16:46:19.160Z,7.34
2022-11-13T16:51:20.666Z,7.11
2022-11-13T16:56:28.309Z,6.91
2022-11-13T17:01:29.921Z,6.76
2022-11-13T17:06:35.127Z,6.64
2022-11-13T17:11:36.647Z,6.53
2022-11-13T17:16:38.250Z,6.50
2022-11-13T17:21:44.248Z,6.51
2022-11-13T17:26:46.062Z,6.68
2022-11-13T17:31:47.531Z,6.88
2022-11-13T17:36:49.033Z,7.01
2022-11-13T17:41:50.641Z,7.09
2022-11-13T17:46:52.169Z,7.09
2022-11-13T17:51:56.085Z,7.05
2022-11-13T17:56:57.561Z,6.93
2022-11-13T18:01:59.067Z,6.87
2022-11-13T18:07:00.625Z,6.87
2022-11-13T18:12:03.003Z,6.83
2022-11-13T18:17:04.475Z,6.80
2022-11-13T18:22:06.013Z,6.97
2022-11-13T18:27:08.163Z,6.98
2022-11-13T18:32:09.933Z,6.98
2022-11-13T18:37:11.441Z,6.99
2022-11-13T18:42:12.934Z,7.13
2022-11-13T18:47:14.436Z,7.13
2022-11-13T18:52:15.946Z,7.23
2022-11-13T18:57:17.448Z,7.24
2022-11-13T19:02:18.978Z,7.28
2022-11-13T19:07:20.969Z,7.30
2022-11-13T19:12:22.619Z,7.40
2022-11-13T19:17:24.289Z,7.50
2022-11-13T19:22:25.754Z,7.63
2022-11-13T19:27:27.287Z,7.63
2022-11-13T19:32:29.342Z,7.64
2022-11-13T19:37:31.056Z,7.72
2022-11-13T19:42:32.550Z,7.77
2022-11-13T19:47:34.034Z,7.84
2022-11-13T19:52:35.597Z,7.87
2022-11-13T19:57:38.310Z,7.80
2022-11-13T20:02:42.646Z,7.63
2022-11-13T20:07:44.178Z,7.60
2022-11-13T20:12:46.359Z,7.58
2022-11-13T20:17:47.836Z,7.56
2022-11-13T20:22:51.149Z,7.54
2022-11-13T20:27:52.631Z,7.58
2022-11-13T20:32:54.126Z,7.62
2022-11-13T20:37:57.421Z,7.58
2022-11-13T20:42:58.914Z,7.50
2022-11-13T20:48:00.448Z,7.48
2022-11-13T20:53:01.944Z,7.39
2022-11-13T20:58:03.436Z,7.30
2022-11-13T21:03:04.932Z,7.26
2022-11-13T21:08:10.145Z,7.28
2022-11-13T21:13:12.700Z,7.20
2022-11-13T21:18:14.232Z,7.20
2022-11-13T21:23:15.955Z,7.29
2022-11-13T21:28:23.423Z,7.31
2022-11-13T21:33:25.877Z,7.31
2022-11-13T21:38:27.618Z,7.30
2022-11-13T21:43:29.279Z,7.39
2022-11-13T21:48:33.386Z,7.40
2022-11-13T21:53:35.146Z,7.43
2022-11-13T21:58:38.832Z,7.36
2022-11-13T22:03:40.536Z,7.29
2022-11-13T22:08:45.588Z,7.27
2022-11-13T22:13:47.093Z,7.27
2022-11-13T22:18:48.671Z,7.31
2022-11-13T22:23:50.995Z,7.35
2022-11-13T22:28:53.807Z,7.36
2022-11-13T22:33:56.257Z,7.32
2022-11-13T22:39:01.646Z,7.25
2022-11-13T22:44:06.164Z,7.23
2022-11-13T22:49:08.250Z,7.29
2022-11-13T22:54:11.548Z,7.35
2022-11-13T22:59:13.315Z,7.28
2022-11-13T23:04:14.900Z,7.23
2022-11-13T23:09:16.425Z,7.27
2022-11-13T23:14:18.015Z,7.34
2022-11-13T23:19:19.508Z,7.33
2022-11-13T23:24:20.972Z,7.29
2022-11-13T23:29:22.492Z,7.29
2022-11-13T23:34:45.328Z,7.23
2022-11-13T23:39:45.572Z,7.23
2022-11-13T23:44:47.058Z,7.15
2022-11-13T23:49:48.524Z,6.95
2022-11-13T23:54:50.048Z,6.95
2022-11-13T23:59:51.543Z,6.98
